Flight Track Log - Related Links

Times and Time Zones

All times are in EDT time to prevent confusion due to time zone crossing. See the FDX612 flight status page for this flight to view local times or setup timezone preferences in your user account.


Time Position Orientation Groundspeed Altitude Reporting Facility
EDT Latitude Longitude Course Direction KTS MPH feet Rate Location/Type
Sat 10:08:34 AM 31.7797 -106.4083 147° Southeast 163 188 5,200  Level Albuquerque Center
Sat 10:09:04 AM 31.7625 -106.3953 147° Southeast 171 197 5,700 1,254 Climbing Albuquerque Center
Sat 10:09:41 AM 31.7453 -106.3556 117° Southeast 213 245 6,600 1,672 Climbing Albuquerque Center
Sat 10:10:05 AM 31.7539 -106.3125 77° East 274 315 7,400 1,967 Climbing Albuquerque Center
Sat 10:10:42 AM 31.7722 -106.2722 62° Northeast 275 316 8,600 1,776 Climbing Albuquerque Center
Sat 10:11:43 AM 31.8103 -106.1811 64° Northeast 309 356 10,300 2,115 Climbing Albuquerque Center
Sat 10:12:44 AM 31.8581 -106.0503 67° East 361 415 12,900 2,410 Climbing Albuquerque Center
Sat 10:13:45 AM 31.9047 -105.9356 64° Northeast 386 444 15,200 2,146 Climbing Albuquerque Center
Sat 10:14:47 AM 31.9514 -105.8178 65° Northeast 397 457 17,300 1,854 Climbing Albuquerque Center
Sat 10:15:48 AM 31.9922 -105.6925 69° East 410 472 19,000 1,672 Climbing Albuquerque Center
Sat 10:16:49 AM 32.0169 -105.5544 78° East 430 495 20,700 1,672 Climbing Albuquerque Center
Sat 10:17:50 AM 32.0431 -105.4122 78° East 442 509 22,400 1,366 Climbing Albuquerque Center
Sat 10:18:52 AM 32.0689 -105.2656 78° East 452 520 23,500 1,220 Climbing Albuquerque Center
Sat 10:19:53 AM 32.0958 -105.1131 78° East 465 535 24,900 1,279 Climbing Albuquerque Center
Sat 10:20:54 AM 32.1236 -104.9564 78° East 481 554 26,100 1,268 Climbing Albuquerque Center
Sat 10:21:56 AM 32.1522 -104.7969 78° East 492 566 27,500 1,171 Climbing Albuquerque Center
Sat 10:22:57 AM 32.1794 -104.6328 79° East 504 580 28,500 1,131 Climbing Albuquerque Center
Sat 10:23:58 AM 32.2125 -104.4356 79° East 509 586 29,800 1,122 Climbing Albuquerque Center
Sat 10:25:00 AM 32.2417 -104.2661 78° East 520 598 30,800 1,024 Climbing Albuquerque Center
Sat 10:26:01 AM 32.2692 -104.0964 79° East 525 604 31,900 1,082 Climbing Albuquerque Center
Sat 10:27:02 AM 32.2956 -103.9389 79° East 526 605 33,000 634 Climbing Albuquerque Center
Sat 10:28:04 AM 32.3225 -103.7694 79° East 526 605 33,200 634 Climbing Albuquerque Center
Sat 10:29:05 AM 32.3528 -103.6025 78° East 523 602 34,300 878 Climbing Albuquerque Center
Sat 10:30:07 AM 32.3842 -103.4006 80° East 521 600 35,000 396 Climbing Albuquerque Center
Sat 10:30:51 AM 32.4033 -103.2936 78° East 522 601 35,000  Level Fort Worth Center
Sat 10:31:51 AM 32.4278 -103.1256 80° East 522 601 35,000  Level Fort Worth Center
Sat 10:32:51 AM 32.4539 -102.9597 79° East 522 601 35,000  Level Fort Worth Center
Sat 10:33:51 AM 32.4803 -102.7889 80° East 522 601 35,000  Level Fort Worth Center
Sat 10:34:51 AM 32.5061 -102.6206 80° East 522 601 35,000  Level Fort Worth Center
Sat 10:35:51 AM 32.5339 -102.4472 79° East 528 608 35,000 -50 Level Fort Worth Center
Sat 10:36:51 AM 32.5594 -102.2761 80° East 528 608 34,900  Descending Fort Worth Center
Sat 10:37:51 AM 32.5856 -102.0878 81° East 533 613 35,000 50 Climbing Fort Worth Center
Sat 10:38:51 AM 32.6128 -101.9142 79° East 527 606 35,000  Level Fort Worth Center
Sat 10:39:51 AM 32.6375 -101.7453 80° East 522 601 35,000  Level Fort Worth Center
Sat 10:40:51 AM 32.6642 -101.5739 79° East 522 601 35,000  Level Fort Worth Center
Sat 10:41:51 AM 32.6864 -101.4022 81° East 522 601 35,000  Level Fort Worth Center
Sat 10:42:51 AM 32.7058 -101.2500 81° East 517 595 35,000  Level Fort Worth Center
Sat 10:43:51 AM 32.7339 -101.0808 79° East 522 601 35,000 -50 Level Fort Worth Center
Sat 10:44:52 AM 32.7556 -100.9061 82° East 522 601 34,900 -50 Descending Fort Worth Center
Sat 10:45:51 AM 32.7833 -100.7219 80° East 522 601 34,900 50 Level Fort Worth Center
Sat 10:46:51 AM 32.8067 -100.5500 81° East 522 601 35,000 50 Climbing Fort Worth Center
Sat 10:47:51 AM 32.8294 -100.3778 81° East 522 601 35,000  Level Fort Worth Center
Sat 10:48:51 AM 32.8544 -100.2053 80° East 522 601 35,000  Level Fort Worth Center
Sat 10:49:51 AM 32.8769 -100.0353 81° East 522 601 35,000  Level Fort Worth Center
Sat 10:50:51 AM 32.9014 -99.8556 81° East 522 601 35,000  Level Fort Worth Center
Sat 10:51:51 AM 32.9214 -99.6803 82° East 527 606 35,000  Level Fort Worth Center
Sat 10:52:51 AM 32.9431 -99.5075 81° East 527 606 35,000  Level Fort Worth Center
Sat 10:53:51 AM 32.9669 -99.3325 81° East 532 612 35,000  Level Fort Worth Center
Sat 10:54:51 AM 32.9858 -99.1767 82° East 532 612 35,000  Level Fort Worth Center
Sat 10:55:51 AM 33.0069 -99.0014 82° East 527 606 35,000  Level Fort Worth Center
Sat 10:56:51 AM 33.0258 -98.8283 83° East 527 606 35,000  Level Fort Worth Center
Sat 10:57:51 AM 33.0486 -98.6525 81° East 527 606 35,000  Level Fort Worth Center
Sat 10:58:51 AM 33.0689 -98.4769 82° East 527 606 35,000  Level Fort Worth Center
Sat 10:59:51 AM 33.0911 -98.3036 81° East 527 606 35,000  Level Fort Worth Center
Sat 11:00:51 AM 33.1131 -98.1128 82° East 527 606 35,000  Level Fort Worth Center
Sat 11:01:51 AM 33.1306 -97.9567 82° East 527 606 35,000  Level Fort Worth Center
Sat 11:02:51 AM 33.1522 -97.7633 82° East 535 616 35,000  Level Fort Worth Center
Sat 11:03:51 AM 33.1714 -97.5872 83° East 540 621 35,000  Level Fort Worth Center
Sat 11:04:51 AM 33.1903 -97.4108 83° East 540 621 35,000  Level Fort Worth Center
Sat 11:05:51 AM 33.2111 -97.2347 82° East 540 621 35,000  Level Fort Worth Center
Sat 11:06:51 AM 33.2294 -97.0558 83° East 540 621 35,000  Level Fort Worth Center
Sat 11:07:51 AM 33.2478 -96.8794 83° East 540 621 35,000  Level Fort Worth Center
Sat 11:08:51 AM 33.2678 -96.7228 81° East 540 621 35,000  Level Fort Worth Center
Sat 11:09:51 AM 33.2875 -96.5436 82° East 540 621 35,000  Level Fort Worth Center
Sat 11:10:51 AM 33.3069 -96.3472 83° East 540 621 35,000  Level Fort Worth Center
Sat 11:11:51 AM 33.3222 -96.1853 84° East 540 621 35,000 50 Level Fort Worth Center
Sat 11:12:51 AM 33.3431 -95.9861 83° East 540 621 35,100  Climbing Fort Worth Center
Sat 11:13:51 AM 33.3558 -95.8292 84° East 540 621 35,000 -50 Descending Fort Worth Center
Sat 11:14:51 AM 33.3761 -95.6350 83° East 540 621 35,000 -50 Level Fort Worth Center
Sat 11:15:51 AM 33.3883 -95.4731 85° East 540 621 34,900  Descending Fort Worth Center
Sat 11:16:51 AM 33.4042 -95.2958 84° East 540 621 35,000 50 Climbing Fort Worth Center
Sat 11:17:51 AM 33.4219 -95.1139 83° East 540 621 35,000  Level Fort Worth Center
Sat 11:18:51 AM 33.4394 -94.9317 83° East 540 621 35,000  Level Fort Worth Center
Sat 11:19:51 AM 33.4564 -94.7494 84° East 540 621 35,000  Level Fort Worth Center
Sat 11:20:51 AM 33.4733 -94.5672 84° East 545 627 35,000  Level Fort Worth Center
Sat 11:21:51 AM 33.4878 -94.3872 84° East 545 627 35,000  Level Fort Worth Center
Sat 11:22:51 AM 33.5064 -94.2022 83° East 545 627 35,000  Level Fort Worth Center
Sat 11:23:51 AM 33.5286 -94.0197 82° East 545 627 35,000  Level Fort Worth Center
Sat 11:24:51 AM 33.5606 -93.8214 79° East 545 627 35,000 -30 Level Fort Worth Center
Sat 11:27:08 AM 33.6233 -93.4456 79° East 532 612 34,900 -30 Descending Memphis Center
Sat 11:28:08 AM 33.6547 -93.2694 78° East 526 605 34,900 50 Level Memphis Center
Sat 11:29:08 AM 33.6836 -93.0958 79° East 526 605 35,000 50 Climbing Memphis Center
Sat 11:30:08 AM 33.7144 -92.9194 78° East 526 605 35,000  Level Memphis Center
Sat 11:31:08 AM 33.7450 -92.7456 78° East 526 605 35,000  Level Memphis Center
Sat 11:32:08 AM 33.7733 -92.5689 79° East 526 605 35,000  Level Memphis Center
Sat 11:33:08 AM 33.8014 -92.3944 79° East 526 605 35,000  Level Memphis Center
Sat 11:34:08 AM 33.8311 -92.2203 78° East 526 605 35,000 -300 Level Memphis Center
Sat 11:35:08 AM 33.8589 -92.0456 79° East 526 605 34,400 -800 Descending Memphis Center
Sat 11:36:08 AM 33.8839 -91.8661 80° East 526 605 33,400 -1,000 Descending Memphis Center
Sat 11:37:08 AM 33.9156 -91.6689 79° East 531 611 32,400 -1,000 Descending Memphis Center
Sat 11:38:08 AM 33.9756 -91.5119 65° Northeast 527 606 31,400 -1,000 Descending Memphis Center
Sat 11:39:08 AM 34.0664 -91.3828 50° Northeast 500 575 30,400 -1,150 Descending Memphis Center
Sat 11:40:08 AM 34.1592 -91.2583 48° Northeast 505 581 29,100 -1,750 Descending Memphis Center
Sat 11:41:08 AM 34.2475 -91.1361 49° Northeast 487 560 26,900 -2,300 Descending Memphis Center
Sat 11:42:08 AM 34.3339 -91.0186 48° Northeast 469 540 24,500 -2,200 Descending Memphis Center
Sat 11:43:08 AM 34.4053 -90.9136 50° Northeast 457 526 22,500 -2,150 Descending Memphis Center
Sat 11:44:08 AM 34.4869 -90.8031 48° Northeast 448 516 20,200 -2,350 Descending Memphis Center
Sat 11:45:08 AM 34.5603 -90.6950 50° Northeast 428 493 17,800 -2,250 Descending Memphis Center
Sat 11:46:08 AM 34.6336 -90.5869 50° Northeast 418 481 15,700 -1,550 Descending Memphis Center
Sat 11:47:08 AM 34.6986 -90.4833 53° Northeast 394 453 14,700 -950 Descending Memphis Center
Sat 11:48:08 AM 34.7569 -90.3925 52° Northeast 356 410 13,800 -950 Descending Memphis Center
Sat 11:49:08 AM 34.8194 -90.2964 52° Northeast 334 384 12,800 -900 Descending Memphis Center
Sat 11:50:08 AM 34.8736 -90.2128 52° Northeast 320 368 12,000 -800 Descending Memphis Center
Sat 11:51:08 AM 34.9236 -90.1317 53° Northeast 307 353 11,200 -1,000 Descending Memphis Center
Sat 11:52:08 AM 34.9903 -90.1111 14° North 259 298 10,000 -1,307 Descending Memphis Center
Sat 11:52:49 AM 35.0333 -90.1000 12° North 250 288 9,000 -1,705 Descending Memphis TRACON
Sat 11:53:43 AM 35.1000 -90.1000 360° North 246 283 7,300 -2,316 Descending Memphis TRACON
Sat 11:54:43 AM 35.1667 -90.1000 360° North 231 266 4,600 -2,150 Descending Memphis TRACON
Sat 11:55:43 AM 35.1833 -90.0500 68° East 188 216 3,000 -1,300 Descending Memphis TRACON
Sat 11:56:43 AM 35.1667 -90.0000 112° Southeast 177 204 2,000 -700 Descending Memphis TRACON
Sat 11:57:43 AM 35.1167 -89.9833 165° South 174 200 1,600 -550 Descending Memphis TRACON
Sat 11:58:43 AM 35.0833 -89.9833 180° South 149 171 900 -700 Descending Memphis TRACON

Login

Don't have an account? Register now (free) for customized features, flight alerts, and more!